createdAt,value
2019-03-18T00:00:01.070Z,992.90
2019-03-18T00:01:01.059Z,992.89
2019-03-18T00:02:01.052Z,992.85
2019-03-18T00:03:01.182Z,992.85
2019-03-18T00:04:01.061Z,992.90
2019-03-18T00:05:01.061Z,992.90
2019-03-18T00:06:01.049Z,992.97
2019-03-18T00:07:01.043Z,993.03
2019-03-18T00:08:01.001Z,992.96
2019-03-18T00:09:01.052Z,992.99
2019-03-18T00:10:00.996Z,992.98
2019-03-18T00:11:00.949Z,992.97
2019-03-18T00:12:00.938Z,993.02
2019-03-18T00:13:00.935Z,993.04
2019-03-18T00:14:00.913Z,993.03
2019-03-18T00:15:02.075Z,993.00
2019-03-18T00:16:00.901Z,993.01
2019-03-18T00:17:00.953Z,993.04
2019-03-18T00:18:00.870Z,993.03
2019-03-18T00:19:00.936Z,993.03
2019-03-18T00:20:00.920Z,993.09
2019-03-18T00:21:00.931Z,993.08
2019-03-18T00:22:00.902Z,993.14
2019-03-18T00:23:00.861Z,993.13
2019-03-18T00:24:00.836Z,993.13
2019-03-18T00:25:01.830Z,993.15
2019-03-18T00:26:00.824Z,993.13
2019-03-18T00:27:01.240Z,993.15
2019-03-18T00:28:00.815Z,993.16
2019-03-18T00:29:00.794Z,993.20
2019-03-18T00:30:00.747Z,993.21
2019-03-18T00:31:00.753Z,993.27
2019-03-18T00:32:00.721Z,993.33
2019-03-18T00:33:03.246Z,993.34
2019-03-18T00:34:00.737Z,993.39
2019-03-18T00:35:00.690Z,993.40
2019-03-18T00:36:00.685Z,993.42
2019-03-18T00:37:00.680Z,993.44
2019-03-18T00:38:00.669Z,993.43
2019-03-18T00:39:00.704Z,993.46
2019-03-18T00:40:00.636Z,993.45
2019-03-18T00:41:00.621Z,993.49
2019-03-18T00:42:00.620Z,993.49
2019-03-18T00:43:00.631Z,993.49
2019-03-18T00:44:00.592Z,993.53
2019-03-18T00:45:13.756Z,993.51
2019-03-18T00:46:01.584Z,993.60
2019-03-18T00:47:00.567Z,993.59
2019-03-18T00:48:00.586Z,993.62
2019-03-18T00:49:00.580Z,993.55
2019-03-18T00:50:00.603Z,993.54
2019-03-18T00:51:00.778Z,993.60
2019-03-18T00:52:00.584Z,993.53
2019-03-18T00:53:00.494Z,993.56
2019-03-18T00:54:00.535Z,993.55
2019-03-18T00:55:00.478Z,993.58
2019-03-18T00:56:00.535Z,993.52
2019-03-18T00:57:00.510Z,993.57
2019-03-18T00:58:00.459Z,993.59
2019-03-18T00:59:00.430Z,993.58
2019-03-18T01:00:00.451Z,993.60
2019-03-18T01:01:00.409Z,993.56
2019-03-18T01:02:00.402Z,993.58
2019-03-18T01:03:00.525Z,993.61
2019-03-18T01:04:00.397Z,993.61
2019-03-18T01:05:00.397Z,993.63
2019-03-18T01:06:00.441Z,993.65
2019-03-18T01:07:00.381Z,993.70
2019-03-18T01:08:00.340Z,993.64
2019-03-18T01:09:00.438Z,993.68
2019-03-18T01:10:00.358Z,993.64
2019-03-18T01:11:00.298Z,993.62
2019-03-18T01:12:00.292Z,993.62
2019-03-18T01:13:00.329Z,993.68
2019-03-18T01:14:00.279Z,993.68
2019-03-18T01:15:00.431Z,993.68
2019-03-18T01:16:00.251Z,993.70
2019-03-18T01:17:00.240Z,993.66
2019-03-18T01:18:00.266Z,993.72
2019-03-18T01:19:00.306Z,993.73
2019-03-18T01:20:00.299Z,993.70
2019-03-18T01:21:00.402Z,993.74
2019-03-18T01:22:00.189Z,993.74
2019-03-18T01:23:00.225Z,993.70
2019-03-18T01:24:00.177Z,993.69
2019-03-18T01:25:00.375Z,993.73
2019-03-18T01:26:00.140Z,993.74
2019-03-18T01:27:00.384Z,993.73
2019-03-18T01:28:00.160Z,993.77
2019-03-18T01:29:00.121Z,993.81
2019-03-18T01:30:00.376Z,993.79
2019-03-18T01:31:00.100Z,993.77
2019-03-18T01:32:00.216Z,993.75
2019-03-18T01:33:00.266Z,993.78
2019-03-18T01:34:00.066Z,993.78
2019-03-18T01:35:00.107Z,993.79
2019-03-18T01:36:00.037Z,993.76
2019-03-18T01:37:00.076Z,993.81
2019-03-18T01:38:00.015Z,993.79
2019-03-18T01:39:00.042Z,993.75
2019-03-18T01:40:00.029Z,993.78
2019-03-18T01:41:00.005Z,993.84
2019-03-18T01:41:59.990Z,993.79
2019-03-18T01:42:59.991Z,993.80
2019-03-18T01:43:59.961Z,993.80
2019-03-18T01:45:00.267Z,993.79
2019-03-18T01:45:59.947Z,993.77
2019-03-18T01:46:59.932Z,993.76
2019-03-18T01:47:59.925Z,993.81
2019-03-18T01:48:59.902Z,993.80
2019-03-18T01:49:59.887Z,993.79
2019-03-18T01:51:00.327Z,993.77
2019-03-18T01:51:59.870Z,993.75
2019-03-18T01:52:59.853Z,993.73
2019-03-18T01:53:59.857Z,993.72
2019-03-18T01:54:59.836Z,993.75
2019-03-18T01:55:59.899Z,993.74
2019-03-18T01:56:59.912Z,993.74
2019-03-18T01:57:59.814Z,993.75
2019-03-18T01:58:59.866Z,993.78
2019-03-18T01:59:59.781Z,993.77
2019-03-18T02:00:59.778Z,993.78
2019-03-18T02:01:59.763Z,993.76
2019-03-18T02:02:59.785Z,993.79
2019-03-18T02:03:59.757Z,993.74
2019-03-18T02:04:59.733Z,993.79
2019-03-18T02:05:59.713Z,993.85
2019-03-18T02:06:59.705Z,993.84
2019-03-18T02:07:59.716Z,993.80
2019-03-18T02:08:59.856Z,993.85
2019-03-18T02:09:59.710Z,993.85
2019-03-18T02:10:59.665Z,993.89
2019-03-18T02:11:59.663Z,993.88
2019-03-18T02:12:59.659Z,993.87
2019-03-18T02:13:59.629Z,993.82
2019-03-18T02:14:59.740Z,993.84
2019-03-18T02:15:59.622Z,993.82
2019-03-18T02:16:59.624Z,993.82
2019-03-18T02:17:59.678Z,993.81
2019-03-18T02:18:59.632Z,993.82
2019-03-18T02:19:59.564Z,993.87
2019-03-18T02:20:59.879Z,993.87
2019-03-18T02:21:59.545Z,993.87
2019-03-18T02:22:59.537Z,993.85
2019-03-18T02:23:59.545Z,993.89
2019-03-18T02:24:59.519Z,993.88
2019-03-18T02:25:59.501Z,993.85
2019-03-18T02:26:59.718Z,993.83
2019-03-18T02:27:59.483Z,993.86
2019-03-18T02:28:59.466Z,993.83
2019-03-18T02:29:59.545Z,993.83
2019-03-18T02:30:59.453Z,993.78
2019-03-18T02:31:59.461Z,993.80
2019-03-18T02:32:59.577Z,993.82
2019-03-18T02:33:59.423Z,993.83
2019-03-18T02:34:59.426Z,993.84
2019-03-18T02:35:59.394Z,993.84
2019-03-18T02:36:59.390Z,993.86
2019-03-18T02:37:59.389Z,993.87
2019-03-18T02:38:59.428Z,993.92
2019-03-18T02:39:59.353Z,993.88
2019-03-18T02:40:59.342Z,993.90
2019-03-18T02:41:59.336Z,993.89
2019-03-18T02:42:59.333Z,993.89
2019-03-18T02:43:59.320Z,993.89
2019-03-18T02:44:59.598Z,993.92
2019-03-18T02:46:09.877Z,993.89
2019-03-18T02:47:00.276Z,993.94
2019-03-18T02:47:59.307Z,993.95
2019-03-18T02:48:59.273Z,993.94
2019-03-18T02:49:59.245Z,993.95
2019-03-18T02:50:59.340Z,993.91
2019-03-18T02:51:59.272Z,993.94
2019-03-18T02:52:59.219Z,993.99
2019-03-18T02:53:59.204Z,993.94
2019-03-18T02:54:59.204Z,993.95
2019-03-18T02:55:59.183Z,993.96
2019-03-18T02:56:59.290Z,993.91
2019-03-18T02:57:59.188Z,993.91
2019-03-18T02:58:59.208Z,993.91
2019-03-18T02:59:59.151Z,993.88
2019-03-18T03:00:59.151Z,993.88
2019-03-18T03:01:59.135Z,993.91
2019-03-18T03:02:59.156Z,993.90
2019-03-18T03:03:59.119Z,993.93
2019-03-18T03:04:59.091Z,993.92
2019-03-18T03:05:59.082Z,993.94
2019-03-18T03:06:59.079Z,993.96
2019-03-18T03:07:59.076Z,993.89
2019-03-18T03:08:59.199Z,993.95
2019-03-18T03:09:59.045Z,993.94
2019-03-18T03:10:59.024Z,993.92
2019-03-18T03:11:59.020Z,993.93
2019-03-18T03:12:59.007Z,993.92
2019-03-18T03:13:58.988Z,993.92
2019-03-18T03:14:59.021Z,993.93
2019-03-18T03:15:58.979Z,993.93
2019-03-18T03:16:58.966Z,993.91
2019-03-18T03:17:58.966Z,993.86
2019-03-18T03:18:58.934Z,993.90
2019-03-18T03:19:58.929Z,993.92
2019-03-18T03:20:58.955Z,993.89
2019-03-18T03:21:58.904Z,993.89
2019-03-18T03:22:58.901Z,993.92
2019-03-18T03:23:58.910Z,993.94
2019-03-18T03:24:58.869Z,993.96
2019-03-18T03:25:58.878Z,993.92
2019-03-18T03:26:59.142Z,993.93
2019-03-18T03:27:58.852Z,993.94
2019-03-18T03:28:58.826Z,993.90
2019-03-18T03:29:58.816Z,993.91
2019-03-18T03:30:58.832Z,993.98
2019-03-18T03:31:58.791Z,993.93
2019-03-18T03:32:58.910Z,993.96
2019-03-18T03:33:58.851Z,994.01
2019-03-18T03:34:58.786Z,994.05
2019-03-18T03:35:58.753Z,994.06
2019-03-18T03:36:58.739Z,994.08
2019-03-18T03:37:58.734Z,994.08
2019-03-18T03:38:58.854Z,994.11
2019-03-18T03:39:58.751Z,994.10
2019-03-18T03:40:58.743Z,994.11
2019-03-18T03:41:58.701Z,994.15
2019-03-18T03:42:58.692Z,994.15
2019-03-18T03:43:58.674Z,994.17
2019-03-18T03:44:58.862Z,994.14
2019-03-18T03:45:58.697Z,994.16
2019-03-18T03:46:58.633Z,994.19
2019-03-18T03:47:58.646Z,994.17
2019-03-18T03:48:58.621Z,994.20
2019-03-18T03:49:58.625Z,994.22
2019-03-18T03:50:58.635Z,994.22
2019-03-18T03:51:58.589Z,994.19
2019-03-18T03:52:58.581Z,994.21
2019-03-18T03:53:58.561Z,994.19
2019-03-18T03:54:58.560Z,994.15
2019-03-18T03:55:58.550Z,994.16
2019-03-18T03:56:58.662Z,994.18
2019-03-18T03:57:58.515Z,994.23
2019-03-18T03:58:58.521Z,994.19
2019-03-18T03:59:58.504Z,994.23
2019-03-18T04:00:58.485Z,994.23
2019-03-18T04:01:58.478Z,994.27
2019-03-18T04:02:58.502Z,994.24
2019-03-18T04:03:58.464Z,994.29
2019-03-18T04:04:58.458Z,994.27
2019-03-18T04:05:58.439Z,994.28
2019-03-18T04:06:58.418Z,994.30
2019-03-18T04:07:58.410Z,994.30
2019-03-18T04:08:58.521Z,994.34
2019-03-18T04:09:58.413Z,994.25
2019-03-18T04:10:58.385Z,994.31
2019-03-18T04:11:58.376Z,994.38
2019-03-18T04:12:58.378Z,994.37
2019-03-18T04:13:58.362Z,994.33
2019-03-18T04:14:58.393Z,994.39
2019-03-18T04:15:58.325Z,994.44
2019-03-18T04:17:02.618Z,994.43
2019-03-18T04:17:58.321Z,994.48
2019-03-18T04:18:58.294Z,994.48
2019-03-18T04:19:58.282Z,994.50
2019-03-18T04:20:58.428Z,994.54
2019-03-18T04:21:58.282Z,994.48
2019-03-18T04:22:58.250Z,994.53
2019-03-18T04:23:58.248Z,994.51
2019-03-18T04:24:58.267Z,994.55
2019-03-18T04:25:58.223Z,994.56
2019-03-18T04:26:58.264Z,994.54
2019-03-18T04:27:58.206Z,994.65
2019-03-18T04:28:58.182Z,994.65
2019-03-18T04:29:58.193Z,994.66
2019-03-18T04:30:58.161Z,994.66
2019-03-18T04:31:58.155Z,994.72
2019-03-18T04:32:58.281Z,994.74
2019-03-18T04:33:58.126Z,994.73
2019-03-18T04:34:58.117Z,994.80
2019-03-18T04:35:58.148Z,994.84
2019-03-18T04:36:58.094Z,994.83
2019-03-18T04:37:58.085Z,994.87
2019-03-18T04:38:58.191Z,994.91
2019-03-18T04:39:58.069Z,994.98
2019-03-18T04:40:58.056Z,994.91
2019-03-18T04:41:58.064Z,994.91
2019-03-18T04:42:58.041Z,994.96
2019-03-18T04:43:58.094Z,994.93
2019-03-18T04:44:58.656Z,994.94
2019-03-18T04:45:58.003Z,994.93
2019-03-18T04:46:57.997Z,994.94
2019-03-18T04:47:57.979Z,994.94
2019-03-18T04:48:57.974Z,994.88
2019-03-18T04:49:57.976Z,994.93
2019-03-18T04:50:58.072Z,994.81
2019-03-18T04:51:57.940Z,994.88
2019-03-18T04:52:57.932Z,994.84
2019-03-18T04:53:57.992Z,994.82
2019-03-18T04:54:57.931Z,994.87
2019-03-18T04:55:57.902Z,994.92
2019-03-18T04:56:58.010Z,994.91
2019-03-18T04:57:57.894Z,994.93
2019-03-18T04:58:57.870Z,994.85
2019-03-18T04:59:57.854Z,994.84
2019-03-18T05:00:57.838Z,994.85
2019-03-18T05:01:57.831Z,994.85
2019-03-18T05:02:58.058Z,994.83
2019-03-18T05:03:57.890Z,994.89
2019-03-18T05:04:57.805Z,994.84
2019-03-18T05:05:57.792Z,994.88
2019-03-18T05:06:57.782Z,994.91
2019-03-18T05:07:57.764Z,994.93
2019-03-18T05:08:57.881Z,994.92
2019-03-18T05:09:57.752Z,994.97
2019-03-18T05:10:57.772Z,994.94
2019-03-18T05:11:57.752Z,995.01
2019-03-18T05:12:57.733Z,994.99
2019-03-18T05:13:57.788Z,994.99
2019-03-18T05:14:57.733Z,994.99
2019-03-18T05:15:57.686Z,994.98
2019-03-18T05:16:57.669Z,994.97
2019-03-18T05:17:57.658Z,994.97
2019-03-18T05:18:57.647Z,994.98
2019-03-18T05:19:57.637Z,994.96
2019-03-18T05:20:57.906Z,995.00
2019-03-18T05:21:57.617Z,995.06
2019-03-18T05:22:57.606Z,995.03
2019-03-18T05:23:57.600Z,995.05
2019-03-18T05:24:57.589Z,995.09
2019-03-18T05:25:57.570Z,995.09
2019-03-18T05:26:57.685Z,995.17
2019-03-18T05:27:57.566Z,995.17
2019-03-18T05:28:57.539Z,995.15
2019-03-18T05:29:57.527Z,995.19
2019-03-18T05:30:57.523Z,995.14
2019-03-18T05:31:57.505Z,995.21
2019-03-18T05:32:57.551Z,995.23
2019-03-18T05:33:57.540Z,995.23
2019-03-18T05:34:57.521Z,995.35
2019-03-18T05:35:57.499Z,995.29
2019-03-18T05:36:57.475Z,995.29
2019-03-18T05:37:57.460Z,995.27
2019-03-18T05:38:57.558Z,995.30
2019-03-18T05:39:57.431Z,995.32
2019-03-18T05:40:57.425Z,995.35
2019-03-18T05:41:57.402Z,995.38
2019-03-18T05:42:57.424Z,995.39
2019-03-18T05:43:57.413Z,995.41
2019-03-18T05:44:57.501Z,995.37
2019-03-18T05:45:57.358Z,995.37
2019-03-18T05:46:57.363Z,995.39
2019-03-18T05:47:57.337Z,995.40
2019-03-18T05:48:57.396Z,995.40
2019-03-18T05:49:57.319Z,995.43
2019-03-18T05:50:57.343Z,995.50
2019-03-18T05:51:57.302Z,995.47
2019-03-18T05:52:57.290Z,995.43
2019-03-18T05:53:57.303Z,995.52
2019-03-18T05:54:57.268Z,995.56
2019-03-18T05:55:57.477Z,995.59
2019-03-18T05:56:57.276Z,995.62
2019-03-18T05:57:57.230Z,995.65
2019-03-18T05:58:57.219Z,995.64
2019-03-18T05:59:57.241Z,995.62
2019-03-18T06:00:57.253Z,995.66
2019-03-18T06:01:57.208Z,995.74
2019-03-18T06:02:57.267Z,995.73
2019-03-18T06:03:57.166Z,995.76
2019-03-18T06:04:57.161Z,995.79
2019-03-18T06:05:57.148Z,995.83
2019-03-18T06:06:57.149Z,995.91
2019-03-18T06:07:57.136Z,995.85
2019-03-18T06:08:57.145Z,995.90
2019-03-18T06:09:57.170Z,995.87
2019-03-18T06:10:57.094Z,995.93
2019-03-18T06:11:57.086Z,995.96
2019-03-18T06:12:57.088Z,995.95
2019-03-18T06:13:57.056Z,995.97
2019-03-18T06:14:57.085Z,996.02
2019-03-18T06:15:57.046Z,996.01
2019-03-18T06:16:57.032Z,996.10
2019-03-18T06:17:57.025Z,996.07
2019-03-18T06:19:00.077Z,996.08
2019-03-18T06:19:57.003Z,996.11
2019-03-18T06:20:57.213Z,996.07
2019-03-18T06:21:56.978Z,996.13
2019-03-18T06:22:56.957Z,996.18
2019-03-18T06:23:56.971Z,996.21
2019-03-18T06:24:56.952Z,996.21
2019-03-18T06:25:56.929Z,996.29
2019-03-18T06:26:57.064Z,996.31
2019-03-18T06:27:56.904Z,996.30
2019-03-18T06:28:56.897Z,996.30
2019-03-18T06:29:56.890Z,996.33
2019-03-18T06:30:56.867Z,996.33
2019-03-18T06:31:56.858Z,996.35
2019-03-18T06:32:56.893Z,996.38
2019-03-18T06:33:56.836Z,996.39
2019-03-18T06:34:56.824Z,996.40
2019-03-18T06:35:56.816Z,996.42
2019-03-18T06:36:56.808Z,996.42
2019-03-18T06:37:56.925Z,996.46
2019-03-18T06:38:56.826Z,996.47
2019-03-18T06:39:56.799Z,996.52
2019-03-18T06:40:56.789Z,996.54
2019-03-18T06:41:56.788Z,996.53
2019-03-18T06:42:56.745Z,996.58
2019-03-18T06:43:56.732Z,996.59
2019-03-18T06:44:56.748Z,996.60
2019-03-18T06:45:56.815Z,996.64
2019-03-18T06:46:56.703Z,996.53
2019-03-18T06:48:04.741Z,996.61
2019-03-18T06:48:57.694Z,996.60
2019-03-18T06:49:56.742Z,996.61
2019-03-18T06:50:56.690Z,996.70
2019-03-18T06:51:56.646Z,996.66
2019-03-18T06:52:56.654Z,996.66
2019-03-18T06:53:56.616Z,996.65
2019-03-18T06:54:56.623Z,996.72
2019-03-18T06:55:56.615Z,996.73
2019-03-18T06:56:56.723Z,996.71
2019-03-18T06:57:57.650Z,996.70
2019-03-18T06:58:56.565Z,996.79
2019-03-18T06:59:56.562Z,996.83
2019-03-18T07:00:56.558Z,996.79
2019-03-18T07:01:56.533Z,996.80
2019-03-18T07:02:56.643Z,996.81
2019-03-18T07:03:56.509Z,996.84
2019-03-18T07:04:56.538Z,996.90
2019-03-18T07:05:56.484Z,996.93
2019-03-18T07:06:56.474Z,996.87
2019-03-18T07:07:56.466Z,996.88
2019-03-18T07:08:56.493Z,996.89
2019-03-18T07:09:56.457Z,996.91
2019-03-18T07:10:56.434Z,996.92
2019-03-18T07:11:56.425Z,996.89
2019-03-18T07:12:56.413Z,996.92
2019-03-18T07:13:56.410Z,996.94
2019-03-18T07:14:56.518Z,996.91
2019-03-18T07:15:56.407Z,996.91
2019-03-18T07:16:56.382Z,996.89
2019-03-18T07:17:56.357Z,996.89
2019-03-18T07:18:56.354Z,996.83
2019-03-18T07:19:56.336Z,996.85
2019-03-18T07:20:56.450Z,996.84
2019-03-18T07:21:56.339Z,996.85
2019-03-18T07:22:56.305Z,996.90
2019-03-18T07:23:56.296Z,996.95
2019-03-18T07:24:56.278Z,996.95
2019-03-18T07:25:56.270Z,996.95
2019-03-18T07:26:56.404Z,996.99
2019-03-18T07:27:56.265Z,997.06
2019-03-18T07:28:56.240Z,997.04
2019-03-18T07:29:56.230Z,996.95
2019-03-18T07:30:56.214Z,996.96
2019-03-18T07:31:56.204Z,996.95
2019-03-18T07:32:56.320Z,996.99
2019-03-18T07:33:56.210Z,996.96
2019-03-18T07:34:56.179Z,996.96
2019-03-18T07:35:56.161Z,996.98
2019-03-18T07:36:56.712Z,997.01
2019-03-18T07:37:56.151Z,997.03
2019-03-18T07:38:56.265Z,997.02
2019-03-18T07:39:56.125Z,997.04
2019-03-18T07:40:56.109Z,997.12
2019-03-18T07:41:56.113Z,997.07
2019-03-18T07:42:56.083Z,997.11
2019-03-18T07:43:56.088Z,997.20
2019-03-18T07:44:56.139Z,997.17
2019-03-18T07:45:56.062Z,997.11
2019-03-18T07:46:56.042Z,997.10
2019-03-18T07:47:56.099Z,997.20
2019-03-18T07:48:56.022Z,997.20
2019-03-18T07:49:56.028Z,997.18
2019-03-18T07:50:56.122Z,997.23
2019-03-18T07:51:55.994Z,997.25
2019-03-18T07:52:55.993Z,997.24
2019-03-18T07:53:55.968Z,997.27
2019-03-18T07:54:55.955Z,997.34
2019-03-18T07:55:55.956Z,997.31
2019-03-18T07:56:55.960Z,997.28
2019-03-18T07:57:55.924Z,997.30
2019-03-18T07:58:55.913Z,997.37
2019-03-18T07:59:55.901Z,997.42
2019-03-18T08:00:55.951Z,997.44
2019-03-18T08:01:55.877Z,997.40
2019-03-18T08:02:56.000Z,997.45
2019-03-18T08:03:55.874Z,997.44
2019-03-18T08:04:55.851Z,997.48
2019-03-18T08:05:55.838Z,997.53
2019-03-18T08:06:55.827Z,997.47
2019-03-18T08:08:04.547Z,997.55
2019-03-18T08:08:55.807Z,997.58
2019-03-18T08:10:03.360Z,997.56
2019-03-18T08:10:55.783Z,997.54
2019-03-18T08:11:55.932Z,997.56
2019-03-18T08:12:55.762Z,997.59
2019-03-18T08:13:55.899Z,997.65
2019-03-18T08:14:55.767Z,997.62
2019-03-18T08:15:55.727Z,997.61
2019-03-18T08:16:55.718Z,997.65
2019-03-18T08:17:55.723Z,997.67
2019-03-18T08:18:55.693Z,997.66
2019-03-18T08:19:55.809Z,997.64
2019-03-18T08:20:55.675Z,997.79
2019-03-18T08:21:55.664Z,997.64
2019-03-18T08:22:55.659Z,997.72
2019-03-18T08:23:55.755Z,997.73
2019-03-18T08:24:55.636Z,997.75
2019-03-18T08:25:55.800Z,997.76
2019-03-18T08:26:55.648Z,997.74
2019-03-18T08:27:55.614Z,997.77
2019-03-18T08:28:55.586Z,997.82
2019-03-18T08:29:55.583Z,997.82
2019-03-18T08:30:55.598Z,997.80
2019-03-18T08:31:55.725Z,997.93
2019-03-18T08:32:55.599Z,997.80
2019-03-18T08:33:55.542Z,997.85
2019-03-18T08:34:55.562Z,997.95
2019-03-18T08:35:55.515Z,997.93
2019-03-18T08:36:55.505Z,997.96
2019-03-18T08:37:55.620Z,997.97
2019-03-18T08:38:55.487Z,998.00
2019-03-18T08:39:55.473Z,998.01
2019-03-18T08:40:55.465Z,998.03
2019-03-18T08:41:55.466Z,998.05
2019-03-18T08:42:55.444Z,998.11
2019-03-18T08:43:55.572Z,997.99
2019-03-18T08:44:55.428Z,998.20
2019-03-18T08:45:55.424Z,998.05
2019-03-18T08:46:55.411Z,997.98
2019-03-18T08:47:55.386Z,998.06
2019-03-18T08:48:56.199Z,998.15
2019-03-18T08:49:55.427Z,998.15
2019-03-18T08:50:55.347Z,998.26
2019-03-18T08:51:55.347Z,998.14
2019-03-18T08:52:55.328Z,998.12
2019-03-18T08:53:55.360Z,998.14
2019-03-18T08:54:55.330Z,998.14
2019-03-18T08:55:55.451Z,998.22
2019-03-18T08:56:55.344Z,998.17
2019-03-18T08:57:55.287Z,998.21
2019-03-18T08:58:55.270Z,998.22
2019-03-18T08:59:55.276Z,998.21
2019-03-18T09:00:55.274Z,998.20
2019-03-18T09:01:55.284Z,998.20
2019-03-18T09:02:56.483Z,998.18
2019-03-18T09:03:55.242Z,998.20
2019-03-18T09:04:55.224Z,998.30
2019-03-18T09:05:55.214Z,998.16
2019-03-18T09:06:55.171Z,998.26
2019-03-18T09:07:55.287Z,998.30
2019-03-18T09:08:55.150Z,998.26
2019-03-18T09:09:55.153Z,998.29
2019-03-18T09:10:55.125Z,998.25
2019-03-18T09:11:55.124Z,998.25
2019-03-18T09:12:55.135Z,998.18
2019-03-18T09:13:55.161Z,998.24
2019-03-18T09:14:55.099Z,998.33
2019-03-18T09:15:55.078Z,998.24
2019-03-18T09:16:55.096Z,998.24
2019-03-18T09:17:55.057Z,998.23
2019-03-18T09:18:55.061Z,998.26
2019-03-18T09:19:55.151Z,998.26
2019-03-18T09:20:55.031Z,998.26
2019-03-18T09:21:55.006Z,998.28
2019-03-18T09:22:55.025Z,998.23
2019-03-18T09:23:54.994Z,998.22
2019-03-18T09:24:55.115Z,998.33
2019-03-18T09:25:55.089Z,998.24
2019-03-18T09:27:02.321Z,998.18
2019-03-18T09:27:55.963Z,998.27
2019-03-18T09:28:54.998Z,998.20
2019-03-18T09:29:54.991Z,998.24
2019-03-18T09:30:54.911Z,998.26
2019-03-18T09:31:54.940Z,998.27
2019-03-18T09:32:54.898Z,998.37
2019-03-18T09:33:54.962Z,998.31
2019-03-18T09:34:54.966Z,998.23
2019-03-18T09:35:54.954Z,998.24
2019-03-18T09:36:54.911Z,998.24
2019-03-18T09:37:54.885Z,998.26
2019-03-18T09:38:54.821Z,998.27
2019-03-18T09:39:54.817Z,998.24
2019-03-18T09:40:54.806Z,998.16
2019-03-18T09:41:54.790Z,998.20
2019-03-18T09:43:03.622Z,998.22
2019-03-18T09:43:54.781Z,998.25
2019-03-18T09:44:54.762Z,998.20
2019-03-18T09:45:54.758Z,998.17
2019-03-18T09:46:54.750Z,998.24
2019-03-18T09:47:56.293Z,998.18
2019-03-18T09:48:54.739Z,998.22
2019-03-18T09:49:54.712Z,998.20
2019-03-18T09:50:54.711Z,998.24
2019-03-18T09:51:54.679Z,998.28
2019-03-18T09:52:54.744Z,998.24
2019-03-18T09:53:54.676Z,998.25
2019-03-18T09:54:54.688Z,998.25
2019-03-18T09:55:54.659Z,998.49
2019-03-18T09:56:54.631Z,998.30
2019-03-18T09:57:54.619Z,998.40
2019-03-18T09:58:54.638Z,998.31
2019-03-18T09:59:54.652Z,998.27
2019-03-18T10:00:55.549Z,998.32
2019-03-18T10:01:54.571Z,998.31
2019-03-18T10:02:54.567Z,998.40
2019-03-18T10:03:54.551Z,998.38
2019-03-18T10:04:54.541Z,998.37
2019-03-18T10:05:54.554Z,998.40
2019-03-18T10:06:54.690Z,998.47
2019-03-18T10:07:54.506Z,998.45
2019-03-18T10:08:54.497Z,998.47
2019-03-18T10:09:54.488Z,998.46
2019-03-18T10:10:54.477Z,998.49
2019-03-18T10:11:54.466Z,998.42
2019-03-18T10:12:54.609Z,998.39
2019-03-18T10:13:54.436Z,998.44
2019-03-18T10:14:54.430Z,998.50
2019-03-18T10:15:54.413Z,998.53
2019-03-18T10:16:54.405Z,998.56
2019-03-18T10:17:54.391Z,998.65
2019-03-18T10:18:54.533Z,998.68
2019-03-18T10:19:54.375Z,998.74
2019-03-18T10:20:54.380Z,998.69
2019-03-18T10:21:54.361Z,998.71
2019-03-18T10:22:54.346Z,998.65
2019-03-18T10:23:54.350Z,998.64
2019-03-18T10:24:54.358Z,998.70
2019-03-18T10:25:54.402Z,998.66
2019-03-18T10:26:54.293Z,998.74
2019-03-18T10:27:54.293Z,998.79
2019-03-18T10:28:54.390Z,998.80
2019-03-18T10:29:54.332Z,998.96
2019-03-18T10:30:54.490Z,999.03
2019-03-18T10:31:54.246Z,999.15
2019-03-18T10:33:01.803Z,999.19
2019-03-18T10:34:01.881Z,999.25
2019-03-18T10:34:54.365Z,999.25
2019-03-18T10:35:54.359Z,999.30
2019-03-18T10:36:54.308Z,999.36
2019-03-18T10:37:54.187Z,999.31
2019-03-18T10:38:54.210Z,999.29
2019-03-18T10:39:54.168Z,999.30
2019-03-18T10:40:54.141Z,999.29
2019-03-18T10:41:54.139Z,999.26
2019-03-18T10:42:54.160Z,999.28
2019-03-18T10:43:54.129Z,999.18
2019-03-18T10:44:54.104Z,999.25
2019-03-18T10:45:54.111Z,999.18
2019-03-18T10:46:54.325Z,999.15
2019-03-18T10:47:55.009Z,999.21
2019-03-18T10:48:55.213Z,999.19
2019-03-18T10:49:54.126Z,999.18
2019-03-18T10:50:54.053Z,999.20
2019-03-18T10:51:54.151Z,999.24
2019-03-18T10:52:54.057Z,999.26
2019-03-18T10:53:54.147Z,999.29
2019-03-18T10:54:54.241Z,999.35
2019-03-18T10:55:53.979Z,999.35
2019-03-18T10:56:54.159Z,999.33
2019-03-18T10:57:53.966Z,999.33
2019-03-18T10:58:53.949Z,999.31
2019-03-18T10:59:53.934Z,999.32
2019-03-18T11:00:55.219Z,999.28
2019-03-18T11:01:54.936Z,999.20
2019-03-18T11:02:53.964Z,999.23
2019-03-18T11:03:54.148Z,999.22
2019-03-18T11:04:54.006Z,999.22
2019-03-18T11:05:53.954Z,999.17
2019-03-18T11:06:54.341Z,999.21
2019-03-18T11:07:53.987Z,999.22
2019-03-18T11:08:53.912Z,999.33
2019-03-18T11:09:54.881Z,999.31
2019-03-18T11:10:54.015Z,999.27
2019-03-18T11:11:53.879Z,999.22
2019-03-18T11:12:55.187Z,999.20
2019-03-18T11:14:00.936Z,999.21
2019-03-18T11:14:58.242Z,999.20
2019-03-18T11:16:03.988Z,999.21
2019-03-18T11:17:24.103Z,999.21
2019-03-18T11:18:38.138Z,999.18
2019-03-18T11:19:05.907Z,999.16
2019-03-18T11:19:58.702Z,999.16
2019-03-18T11:20:59.276Z,999.19
2019-03-18T11:22:02.783Z,999.19
2019-03-18T11:22:56.978Z,999.11
2019-03-18T11:24:01.702Z,999.10
2019-03-18T11:25:01.658Z,999.09
2019-03-18T11:26:06.040Z,999.05
2019-03-18T11:27:56.566Z,999.14
2019-03-18T11:28:57.720Z,999.14
2019-03-18T11:29:58.936Z,999.16
2019-03-18T11:30:55.165Z,999.19
2019-03-18T11:31:54.891Z,999.20
2019-03-18T11:32:53.628Z,999.16
2019-03-18T11:33:53.581Z,999.28
2019-03-18T11:34:53.568Z,999.25
2019-03-18T11:35:55.720Z,999.27
2019-03-18T11:36:53.616Z,999.26
2019-03-18T11:37:53.521Z,999.29
2019-03-18T11:38:53.510Z,999.27
2019-03-18T11:39:53.503Z,999.30
2019-03-18T11:40:53.490Z,999.31
2019-03-18T11:41:53.603Z,999.34
2019-03-18T11:42:53.467Z,999.29
2019-03-18T11:43:53.456Z,999.26
2019-03-18T11:44:53.472Z,999.24
2019-03-18T11:45:53.441Z,999.28
2019-03-18T11:46:53.429Z,999.24
2019-03-18T11:47:53.552Z,999.27
2019-03-18T11:48:53.414Z,999.28
2019-03-18T11:49:53.402Z,999.29
2019-03-18T11:50:53.378Z,999.33
2019-03-18T11:51:53.380Z,999.32
2019-03-18T11:52:53.384Z,999.34
2019-03-18T11:53:53.468Z,999.40
2019-03-18T11:54:53.382Z,999.46
2019-03-18T11:55:53.401Z,999.37
2019-03-18T11:56:53.312Z,999.34
2019-03-18T11:57:53.350Z,999.24
2019-03-18T11:58:53.295Z,999.24
2019-03-18T11:59:53.420Z,999.24
2019-03-18T12:00:53.271Z,999.27
2019-03-18T12:01:53.290Z,999.29
2019-03-18T12:02:53.260Z,999.29
2019-03-18T12:03:53.262Z,999.33
2019-03-18T12:04:53.252Z,999.32
2019-03-18T12:05:53.354Z,999.33
2019-03-18T12:06:53.364Z,999.55
2019-03-18T12:07:53.373Z,999.51
2019-03-18T12:08:53.184Z,999.47
2019-03-18T12:09:53.174Z,999.54
2019-03-18T12:10:53.161Z,999.61
2019-03-18T12:11:53.294Z,999.51
2019-03-18T12:12:53.202Z,999.51
2019-03-18T12:13:53.139Z,999.54
2019-03-18T12:14:53.119Z,999.56
2019-03-18T12:15:53.145Z,999.57
2019-03-18T12:16:53.195Z,999.51
2019-03-18T12:17:53.197Z,999.52
2019-03-18T12:18:53.103Z,999.53
2019-03-18T12:19:53.076Z,999.54
2019-03-18T12:20:53.063Z,999.51
2019-03-18T12:21:53.049Z,999.57
2019-03-18T12:22:53.040Z,999.70
2019-03-18T12:23:53.774Z,999.76
2019-03-18T12:24:53.019Z,999.69
2019-03-18T12:25:53.016Z,999.61
2019-03-18T12:26:52.987Z,999.62
2019-03-18T12:27:52.977Z,999.62
2019-03-18T12:28:52.976Z,999.65